Time;durP1;ratioP1;P1;durP2;ratioP2;P2;SDS_P1;SDS_P2;PMS_P1;PMS_P2;Temp;Humidity;BMP_temperature;BMP_pressure;BME280_temperature;BME280_humidity;BME280_pressure;Samples;Min_cycle;Max_cycle;Signal;HPM_P1;HPM_P2
2023/11/15 00:01:18;;;;;;;9.10;3.90;;;;;;;4.23;97.67;98014.25;5047525;28;20510;-40
2023/11/15 00:03:44;;;;;;;9.43;4.18;;;;;;;4.28;97.16;98018.38;5048108;28;20035;-40
2023/11/15 00:06:10;;;;;;;7.72;4.32;;;;;;;4.37;97.20;98008.59;5052577;28;20043;-39
2023/11/15 00:08:36;;;;;;;5.32;3.08;;;;;;;4.36;96.70;98014.63;5037592;28;20041;-46
2023/11/15 00:11:03;;;;;;;3.90;2.28;;;;;;;4.31;96.55;98019.09;5050259;28;20535;-40
2023/11/15 00:13:29;;;;;;;7.40;4.03;;;;;;;4.27;96.55;98007.25;5050161;28;20522;-39
2023/11/15 00:15:56;;;;;;;6.38;3.20;;;;;;;4.21;96.35;97979.19;5051866;28;20048;-39
2023/11/15 00:18:22;;;;;;;6.43;3.95;;;;;;;4.11;95.93;97968.38;5057292;28;20420;-39
2023/11/15 00:20:51;;;;;;;8.93;4.18;;;;;;;4.18;95.60;97984.44;5053043;28;20044;-41
2023/11/15 00:23:17;;;;;;;;;;;;;;;4.32;95.28;98015.63;5032335;28;20258;-40
2023/11/15 00:25:43;;;;;;;5.40;2.67;;;;;;;4.26;95.23;98011.56;5036605;28;19924;-39
2023/11/15 00:28:09;;;;;;;7.78;4.43;;;;;;;4.25;95.50;98016.75;5035254;28;20402;-39
2023/11/15 00:30:36;;;;;;;9.07;4.28;;;;;;;4.24;95.46;98015.06;5033660;28;20047;-38
2023/11/15 00:33:02;;;;;;;8.68;4.18;;;;;;;4.23;95.75;98016.81;5035806;28;20040;-38
2023/11/15 00:35:28;;;;;;;7.20;3.92;;;;;;;4.21;95.99;98002.31;5054490;28;20158;-39
2023/11/15 00:37:54;;;;;;;7.43;3.63;;;;;;;4.30;95.76;98004.56;5053230;28;20535;-39
2023/11/15 00:40:20;;;;;;;6.95;4.15;;;;;;;4.30;96.15;98012.28;5027961;28;20045;-39
2023/11/15 00:42:48;;;;;;;8.13;3.78;;;;;;;4.25;96.33;97979.00;5031861;28;20052;-39
2023/11/15 00:45:14;;;;;;;7.32;4.28;;;;;;;4.24;96.37;97968.75;5039059;28;20045;-41
2023/11/15 00:47:41;;;;;;;7.47;3.63;;;;;;;4.29;95.53;97995.19;5040792;28;20079;-39
2023/11/15 00:50:08;;;;;;;9.43;4.35;;;;;;;4.24;95.32;98004.78;5035643;28;20046;-39
2023/11/15 00:52:35;;;;;;;7.95;4.10;;;;;;;4.23;95.44;97992.84;5033187;28;20057;-39
2023/11/15 00:55:01;;;;;;;7.40;4.15;;;;;;;4.08;95.43;97959.94;5048903;28;20503;-39
2023/11/15 00:57:33;;;;;;;5.25;3.13;;;;;;;4.30;95.68;97999.41;5030982;28;20041;-39
2023/11/15 01:00:00;;;;;;;7.60;4.20;;;;;;;4.28;95.17;97992.66;5031029;28;20080;-39
2023/11/15 01:02:35;;;;;;;8.07;3.97;;;;;;;4.35;94.84;97989.78;5031428;28;20048;-40
2023/11/15 01:05:03;;;;;;;7.57;3.70;;;;;;;4.37;95.31;97993.16;5027880;28;20079;-39
2023/11/15 01:07:31;;;;;;;8.10;3.88;;;;;;;4.40;95.05;97990.47;5030997;28;20150;-39
2023/11/15 01:09:58;;;;;;;6.97;3.75;;;;;;;4.41;95.12;97986.16;5033519;28;20068;-40
2023/11/15 01:12:25;;;;;;;7.68;3.55;;;;;;;4.41;94.70;97989.56;5040379;28;20146;-39
2023/11/15 01:14:53;;;;;;;7.30;4.07;;;;;;;4.41;94.49;97994.72;5048010;28;20425;-39
2023/11/15 01:17:19;;;;;;;7.18;3.97;;;;;;;4.45;94.50;97986.00;5033061;28;20041;-40
2023/11/15 01:19:45;;;;;;;9.23;4.70;;;;;;;4.48;94.72;98000.50;5053558;28;20147;-39
2023/11/15 01:22:11;;;;;;;9.32;4.28;;;;;;;4.44;94.04;97997.19;5032791;28;20124;-39
2023/11/15 01:24:39;;;;;;;8.35;4.20;;;;;;;4.45;93.60;98000.63;5028173;28;20144;-40
2023/11/15 01:27:06;;;;;;;8.88;4.35;;;;;;;4.45;94.00;98001.41;5033363;28;20729;-39
2023/11/15 01:29:32;;;;;;;9.88;4.90;;;;;;;4.25;93.81;97960.16;5032735;28;20044;-39
2023/11/15 01:31:57;;;;;;;9.18;4.30;;;;;;;4.48;93.57;98001.34;5047898;28;20045;-39
2023/11/15 01:34:24;;;;;;;7.25;3.67;;;;;;;4.39;93.30;98001.66;5032751;28;20406;-40
2023/11/15 01:36:49;;;;;;;11.88;4.97;;;;;;;4.34;93.81;97997.59;5033178;28;20425;-39
2023/11/15 01:39:20;;;;;;;9.63;4.85;;;;;;;4.27;93.81;97978.97;5031960;28;20042;-39
2023/11/15 01:41:48;;;;;;;9.43;4.30;;;;;;;4.39;93.92;97998.25;5046245;28;20052;-40
2023/11/15 01:44:16;;;;;;;6.88;4.13;;;;;;;4.34;93.46;97997.59;5036844;28;20045;-39
2023/11/15 01:46:44;;;;;;;8.35;4.47;;;;;;;4.43;94.09;97992.09;5035655;28;20127;-40
2023/11/15 01:49:10;;;;;;;8.63;4.38;;;;;;;4.44;93.78;97997.19;5035029;28;20120;-40
2023/11/15 01:51:36;;;;;;;8.15;4.28;;;;;;;4.45;93.73;97993.69;5034954;28;20037;-40
2023/11/15 01:54:04;;;;;;;9.40;4.78;;;;;;;4.47;93.28;97999.66;5039781;28;20045;-40
2023/11/15 01:56:31;;;;;;;10.27;5.10;;;;;;;4.49;92.71;97994.44;5054110;28;20076;-40
2023/11/15 01:58:58;;;;;;;9.48;4.97;;;;;;;4.38;92.89;97976.84;5029386;28;20091;-38
2023/11/15 02:01:24;;;;;;;8.52;4.70;;;;;;;4.57;93.22;97995.84;5054904;28;20041;-40
2023/11/15 02:03:51;;;;;;;8.93;4.40;;;;;;;4.64;93.12;98001.59;5050862;28;20833;-40
2023/11/15 02:06:17;;;;;;;11.05;5.07;;;;;;;4.67;93.06;97998.91;5035959;28;20599;-39
2023/11/15 02:08:43;;;;;;;10.38;4.80;;;;;;;4.68;92.64;98003.16;5036986;28;20044;-40
2023/11/15 02:11:09;;;;;;;10.27;5.13;;;;;;;4.71;92.44;98008.16;5037020;28;20152;-40
2023/11/15 02:13:36;;;;;;;7.90;4.30;;;;;;;4.72;91.78;98009.00;5048324;28;20045;-39
2023/11/15 02:16:06;;;;;;;9.63;4.78;;;;;;;4.79;92.25;98000.16;5045458;28;20505;-40
2023/11/15 02:18:34;;;;;;;9.93;5.03;;;;;;;4.49;91.60;97964.41;5029455;28;20528;-39
2023/11/15 02:21:01;;;;;;;12.88;5.90;;;;;;;4.87;91.94;98005.84;5046155;28;20071;-39
2023/11/15 02:23:28;;;;;;;8.77;4.68;;;;;;;4.99;91.14;98015.69;5035553;28;20049;-40
2023/11/15 02:25:54;;;;;;;8.68;4.18;;;;;;;5.06;91.58;98009.41;5035708;28;20030;-41
2023/11/15 02:28:20;;;;;;;7.97;5.00;;;;;;;5.13;91.11;98015.19;5036357;28;20045;-40
2023/11/15 02:30:47;;;;;;;7.40;4.05;;;;;;;5.07;90.64;97996.50;5036161;28;20087;-38
2023/11/15 02:33:13;;;;;;;9.80;4.90;;;;;;;5.14;90.65;98020.25;5051409;28;20524;-40
2023/11/15 02:35:40;;;;;;;8.07;4.00;;;;;;;5.18;90.24;98016.69;5035659;28;20122;-39
2023/11/15 02:38:06;;;;;;;9.38;4.97;;;;;;;5.04;90.33;97990.59;5036082;28;20041;-38
2023/11/15 02:40:34;;;;;;;8.57;4.78;;;;;;;5.29;89.83;98018.78;5048802;28;20052;-39
2023/11/15 02:43:00;;;;;;;9.27;4.80;;;;;;;5.16;89.61;97997.00;5033662;28;20068;-39
2023/11/15 02:45:26;;;;;;;11.60;5.10;;;;;;;5.16;89.60;98021.03;5051117;28;20806;-39
2023/11/15 02:47:53;;;;;;;8.25;4.47;;;;;;;5.23;89.07;98021.63;5035406;28;20539;-39
2023/11/15 02:50:19;;;;;;;12.30;4.40;;;;;;;5.10;88.37;98022.13;5033723;28;20069;-39
2023/11/15 02:52:46;;;;;;;7.95;4.10;;;;;;;4.99;87.83;98024.25;5035974;28;20045;-39
2023/11/15 02:55:12;;;;;;;7.72;3.45;;;;;;;4.93;87.36;98021.06;5051166;28;20037;-39
2023/11/15 02:57:39;;;;;;;9.10;4.25;;;;;;;4.91;87.64;98018.59;5035115;28;20457;-40
2023/11/15 03:00:06;;;;;;;8.65;4.78;;;;;;;5.00;87.94;98019.94;5034807;28;20041;-40
2023/11/15 03:02:33;;;;;;;8.93;4.55;;;;;;;5.08;87.78;98020.47;5049286;28;20419;-40
2023/11/15 03:05:00;;;;;;;7.65;3.97;;;;;;;5.11;87.73;98021.22;5032518;28;20040;-39
2023/11/15 03:07:27;;;;;;;8.30;4.32;;;;;;;5.15;87.61;98026.25;5058978;28;20068;-40
2023/11/15 03:09:53;;;;;;;11.02;5.30;;;;;;;5.23;87.25;98022.47;5035232;28;20067;-39
2023/11/15 03:12:19;;;;;;;8.18;5.00;;;;;;;5.18;87.21;98008.09;5041754;28;20116;-39
2023/11/15 03:14:46;;;;;;;11.55;5.97;;;;;;;5.33;87.32;98034.09;5031312;28;20599;-39
2023/11/15 03:17:15;;;;;;;11.27;5.07;;;;;;;5.28;87.01;98033.44;5050836;28;20045;-39
2023/11/15 03:19:42;;;;;;;6.90;3.67;;;;;;;5.29;87.11;98029.94;5050907;28;20052;-38
2023/11/15 03:22:08;;;;;;;8.60;3.97;;;;;;;5.18;86.32;98029.56;5050663;28;20041;-39
2023/11/15 03:24:34;;;;;;;9.68;4.57;;;;;;;5.28;86.06;98035.19;5049178;28;20509;-39
2023/11/15 03:27:00;;;;;;;9.50;4.65;;;;;;;5.29;85.95;98034.25;5023213;28;20127;-39
2023/11/15 03:29:26;;;;;;;12.00;4.80;;;;;;;5.33;85.51;98028.09;5033915;28;20576;-41
2023/11/15 03:31:52;;;;;;;8.48;4.55;;;;;;;5.38;85.69;98028.75;5031165;28;20045;-39
2023/11/15 03:34:18;;;;;;;6.72;4.20;;;;;;;5.42;86.16;98025.16;5034820;28;20444;-41
2023/11/15 03:36:44;;;;;;;8.57;4.00;;;;;;;5.36;85.35;98025.38;5035061;28;20033;-40
2023/11/15 03:39:12;;;;;;;9.10;4.35;;;;;;;5.35;85.04;98024.56;5050328;28;20049;-40
2023/11/15 03:41:39;;;;;;;10.70;5.20;;;;;;;5.39;85.16;98018.38;5034512;28;20037;-39
2023/11/15 03:44:05;;;;;;;9.68;4.03;;;;;;;5.44;85.03;98025.94;5034625;28;20035;-42
2023/11/15 03:46:31;;;;;;;7.00;3.80;;;;;;;5.44;84.88;98015.63;5049707;28;20045;-40
2023/11/15 03:48:57;;;;;;;6.88;3.45;;;;;;;5.50;84.28;98025.66;5032217;28;20052;-38
2023/11/15 03:51:23;;;;;;;8.68;4.78;;;;;;;5.28;83.55;97996.53;5034680;28;20045;-40
2023/11/15 03:53:48;;;;;;;6.90;3.95;;;;;;;5.51;83.66;98030.78;5033906;28;20076;-40
2023/11/15 03:56:15;;;;;;;8.70;4.40;;;;;;;5.56;83.34;98033.16;5034155;28;20041;-41
2023/11/15 03:58:42;;;;;;;10.98;4.88;;;;;;;5.43;82.79;98012.22;5049850;28;20045;-40
2023/11/15 04:01:09;;;;;;;9.50;3.97;;;;;;;5.43;82.73;98009.63;5035936;28;20425;-40
2023/11/15 04:03:35;;;;;;;8.70;4.30;;;;;;;5.32;82.31;98005.81;5048068;28;20037;-40
2023/11/15 04:06:03;;;;;;;8.70;4.22;;;;;;;5.38;82.54;98003.00;5034135;28;20068;-39
2023/11/15 04:08:30;;;;;;;11.63;4.23;;;;;;;5.51;82.74;98025.63;5041208;28;20041;-40
2023/11/15 04:10:57;;;;;;;8.68;4.00;;;;;;;5.57;82.11;98029.69;5031828;28;20303;-40
2023/11/15 04:13:24;;;;;;;7.55;4.18;;;;;;;5.45;81.93;98006.97;5032369;28;20043;-41
2023/11/15 04:15:50;;;;;;;7.97;4.10;;;;;;;5.66;82.67;98036.19;5047677;28;20072;-43
2023/11/15 04:18:17;;;;;;;9.18;4.03;;;;;;;5.69;81.89;98031.78;5058329;28;20044;-39
2023/11/15 04:20:43;;;;;;;8.07;3.38;;;;;;;5.69;81.87;98038.66;5052997;28;20163;-40
2023/11/15 04:23:09;;;;;;;7.53;4.15;;;;;;;5.70;82.06;98035.19;5050838;28;20033;-40
2023/11/15 04:25:35;;;;;;;7.53;4.20;;;;;;;5.55;81.80;98011.69;5054664;28;20068;-40
2023/11/15 04:28:04;;;;;;;9.40;4.32;;;;;;;5.73;81.95;98035.88;5055976;28;20040;-41
2023/11/15 04:30:31;;;;;;;7.07;3.93;;;;;;;5.72;81.70;98029.06;5052668;28;20045;-40
2023/11/15 04:32:57;;;;;;;8.70;4.00;;;;;;;5.76;81.57;98046.06;5053355;28;20790;-40
2023/11/15 04:35:23;;;;;;;6.85;3.90;;;;;;;5.63;81.32;98021.72;5056179;28;20056;-40
2023/11/15 04:37:48;;;;;;;8.82;4.88;;;;;;;5.75;81.45;98043.56;5040231;28;20124;-39
2023/11/15 04:40:14;;;;;;;7.82;3.92;;;;;;;5.68;80.87;98045.56;5044770;28;20077;-39
2023/11/15 04:42:40;;;;;;;6.88;3.67;;;;;;;5.65;80.54;98050.84;5038117;28;20495;-39
2023/11/15 04:45:07;;;;;;;6.28;3.92;;;;;;;5.62;80.49;98048.38;5038791;28;20051;-40
2023/11/15 04:47:35;;;;;;;8.15;3.58;;;;;;;5.61;80.72;98049.28;5031311;28;20048;-39
2023/11/15 04:50:01;;;;;;;10.15;5.00;;;;;;;5.67;80.10;98048.19;5028253;28;20037;-40
2023/11/15 04:52:30;;;;;;;8.45;4.53;;;;;;;5.70;80.11;98050.66;5041296;28;20501;-39
2023/11/15 04:54:55;;;;;;;8.20;4.45;;;;;;;5.65;80.42;98056.00;5033337;28;20096;-39
2023/11/15 04:57:25;;;;;;;10.00;4.57;;;;;;;5.43;80.32;98037.13;5032857;28;20460;-40
2023/11/15 04:59:54;;;;;;;9.85;4.55;;;;;;;5.60;80.11;98057.91;5036498;28;20037;-40
2023/11/15 05:02:22;;;;;;;10.50;4.78;;;;;;;5.57;80.36;98063.19;5035842;28;20045;-38
2023/11/15 05:04:49;;;;;;;10.85;4.82;;;;;;;5.52;80.67;98060.81;5039849;28;20467;-41
2023/11/15 05:07:15;;;;;;;7.85;4.38;;;;;;;5.59;80.44;98061.41;5045918;28;20037;-40
2023/11/15 05:09:41;;;;;;;10.32;4.55;;;;;;;5.65;80.29;98065.47;5030965;28;20067;-40
2023/11/15 05:12:07;;;;;;;11.38;4.70;;;;;;;5.30;80.54;98025.63;5046922;28;20037;-39
2023/11/15 05:14:36;;;;;;;8.85;4.55;;;;;;;5.58;80.26;98076.91;5031211;28;20037;-40
2023/11/15 05:17:03;;;;;;;10.63;4.90;;;;;;;5.44;80.12;98070.56;5031728;28;20041;-42
2023/11/15 05:19:29;;;;;;;9.50;4.55;;;;;;;5.48;79.68;98069.56;5037043;28;20287;-41
2023/11/15 05:21:55;;;;;;;9.38;4.80;;;;;;;5.50;79.65;98075.47;5031718;28;20186;-40
2023/11/15 05:24:21;;;;;;;10.55;4.90;;;;;;;5.58;79.75;98072.59;5031465;28;20053;-41
2023/11/15 05:26:47;;;;;;;9.40;4.60;;;;;;;5.65;79.99;98068.06;5031896;28;20048;-41
2023/11/15 05:29:13;;;;;;;9.30;4.57;;;;;;;5.57;79.96;98044.31;5032604;28;20568;-41
2023/11/15 05:31:39;;;;;;;8.13;4.28;;;;;;;5.65;79.88;98055.16;5047138;28;20049;-40
2023/11/15 05:34:05;;;;;;;9.18;4.43;;;;;;;5.64;79.83;98046.59;5031814;28;20688;-40
2023/11/15 05:36:31;;;;;;;8.20;4.88;;;;;;;5.69;79.64;98052.41;5031742;28;20626;-40
2023/11/15 05:38:57;;;;;;;9.70;4.88;;;;;;;5.85;79.74;98071.50;5030006;28;20045;-40
2023/11/15 05:41:23;;;;;;;10.77;4.07;;;;;;;5.87;78.96;98074.03;5030611;28;20127;-38
2023/11/15 05:43:49;;;;;;;7.13;4.05;;;;;;;5.86;78.96;98073.16;5031274;28;20041;-40
2023/11/15 05:46:15;;;;;;;7.32;3.85;;;;;;;5.87;79.44;98066.28;5032203;28;20048;-40
2023/11/15 05:48:42;;;;;;;8.27;3.90;;;;;;;5.91;78.59;98078.97;5029788;28;20053;-40
2023/11/15 05:51:08;;;;;;;8.80;4.57;;;;;;;5.93;78.57;98074.63;5047192;28;20184;-40
2023/11/15 05:53:35;;;;;;;10.02;4.00;;;;;;;5.91;78.72;98076.41;5031535;28;20132;-41
2023/11/15 05:56:01;;;;;;;8.15;4.97;;;;;;;6.01;78.38;98082.03;5032478;28;20042;-39
2023/11/15 05:58:27;;;;;;;7.97;4.43;;;;;;;6.03;78.28;98077.66;5031046;28;20425;-41
2023/11/15 06:00:53;;;;;;;8.20;4.97;;;;;;;6.04;77.97;98075.91;5032532;28;20037;-39
2023/11/15 06:03:20;;;;;;;8.20;4.38;;;;;;;6.04;77.77;98079.31;5053166;28;20043;-39
2023/11/15 06:05:47;;;;;;;9.07;4.35;;;;;;;6.09;78.04;98079.13;5047540;28;20037;-41
2023/11/15 06:08:13;;;;;;;7.03;4.20;;;;;;;6.11;77.45;98075.59;5032030;28;20041;-40
2023/11/15 06:10:39;;;;;;;11.52;4.32;;;;;;;6.12;77.54;98079.03;5051846;28;20144;-39
2023/11/15 06:13:06;;;;;;;7.85;4.38;;;;;;;6.11;77.01;98082.50;5067139;28;20040;-40
2023/11/15 06:15:33;;;;;;;8.68;4.32;;;;;;;6.10;77.02;98080.81;5053604;28;20044;-40
2023/11/15 06:17:59;;;;;;;8.63;4.85;;;;;;;6.09;76.87;98084.28;5047415;28;20052;-39
2023/11/15 06:20:25;;;;;;;8.13;4.22;;;;;;;5.91;76.32;98052.38;5049450;28;20135;-40
2023/11/15 06:22:51;;;;;;;7.68;3.88;;;;;;;6.11;76.46;98090.22;5052113;28;20040;-42
2023/11/15 06:25:18;;;;;;;7.43;4.50;;;;;;;6.11;75.97;98085.06;5054270;28;20041;-40
2023/11/15 06:27:46;;;;;;;6.68;4.03;;;;;;;6.10;76.32;98083.38;5039476;28;20047;-41
2023/11/15 06:30:17;;;;;;;10.38;4.00;;;;;;;6.14;75.80;98090.94;5068417;28;20041;-40
2023/11/15 06:32:44;;;;;;;8.85;4.85;;;;;;;6.01;75.78;98069.16;5032778;28;20098;-39
2023/11/15 06:35:10;;;;;;;7.80;4.70;;;;;;;6.20;76.04;98095.84;5031603;28;20042;-46
2023/11/15 06:37:36;;;;;;;6.07;3.40;;;;;;;6.07;75.76;98066.28;5045249;28;20072;-37
2023/11/15 06:40:07;;;;;;;9.80;4.88;;;;;;;6.25;75.40;98104.22;5030758;28;20180;-36
2023/11/15 06:42:34;;;;;;;9.45;4.38;;;;;;;6.24;75.32;98099.13;5035341;28;20041;-38
2023/11/15 06:45:02;;;;;;;9.57;4.10;;;;;;;6.24;74.83;98091.38;5037244;28;20060;-38
2023/11/15 06:47:33;;;;;;;7.70;4.15;;;;;;;6.19;74.23;98083.84;5053537;28;20051;-38
2023/11/15 06:49:59;;;;;;;15.77;4.30;;;;;;;6.25;74.15;98093.06;5053816;28;20431;-38
2023/11/15 06:52:25;;;;;;;10.40;4.35;;;;;;;6.08;74.03;98054.22;5053629;28;20040;-38
2023/11/15 06:54:52;;;;;;;7.95;3.83;;;;;;;6.34;74.23;98102.97;5028201;28;20055;-37
2023/11/15 06:57:19;;;;;;;8.30;4.65;;;;;;;6.37;73.56;98103.72;5055149;28;20044;-36
2023/11/15 06:59:45;;;;;;;10.52;3.88;;;;;;;6.43;73.78;98099.19;5038161;28;20060;-37
2023/11/15 07:02:11;;;;;;;7.13;4.05;;;;;;;6.45;73.21;98105.09;5046817;28;20041;-38
2023/11/15 07:04:38;;;;;;;10.00;4.40;;;;;;;6.48;72.95;98103.25;5043873;28;20043;-37
2023/11/15 07:07:04;;;;;;;10.52;4.93;;;;;;;6.50;73.45;98114.34;5031450;28;20509;-37
2023/11/15 07:09:31;;;;;;;8.82;4.78;;;;;;;6.54;73.14;98112.47;5050506;28;20876;-37
2023/11/15 07:11:57;;;;;;;8.68;4.80;;;;;;;6.58;73.06;98119.19;5034580;28;20087;-37
2023/11/15 07:14:28;;;;;;;6.78;4.00;;;;;;;6.59;72.78;98118.28;5043604;28;20064;-37
2023/11/15 07:16:58;;;;;;;6.88;4.13;;;;;;;6.54;72.32;98102.97;5042524;28;20135;-39
2023/11/15 07:19:25;;;;;;;9.95;4.10;;;;;;;6.62;72.41;98111.22;5041916;28;20124;-38
2023/11/15 07:21:54;;;;;;;10.48;4.68;;;;;;;6.64;71.96;98112.00;5041664;28;20385;-36
2023/11/15 07:24:21;;;;;;;9.27;4.55;;;;;;;6.68;71.76;98116.13;5024842;28;20086;-35
2023/11/15 07:26:47;;;;;;;7.65;4.15;;;;;;;6.72;71.78;98116.81;5037651;28;20072;-38
2023/11/15 07:29:18;;;;;;;7.10;4.53;;;;;;;6.61;71.29;98091.47;5038821;28;20577;-39
2023/11/15 07:31:52;;;;;;;8.02;3.92;;;;;;;6.76;71.23;98119.19;5031272;28;20051;-37
2023/11/15 07:34:23;;;;;;;10.27;4.47;;;;;;;6.67;70.81;98098.13;5047949;28;20132;-38
2023/11/15 07:36:49;;;;;;;7.22;3.70;;;;;;;6.85;70.65;98119.72;5042705;28;20071;-36
2023/11/15 07:39:15;;;;;;;8.45;4.18;;;;;;;6.91;70.65;98122.03;5049361;28;20087;-37
2023/11/15 07:41:42;;;;;;;9.55;4.72;;;;;;;6.93;70.24;98122.78;5032858;28;20099;-37
2023/11/15 07:44:09;;;;;;;8.10;4.50;;;;;;;6.93;69.99;98123.63;5035049;28;20073;-36
2023/11/15 07:46:36;;;;;;;9.05;4.43;;;;;;;6.97;69.98;98124.31;5031704;28;20041;-38
2023/11/15 07:49:02;;;;;;;6.80;3.72;;;;;;;6.92;69.67;98121.94;5040894;28;20040;-36
2023/11/15 07:51:29;;;;;;;8.00;3.92;;;;;;;6.71;69.75;98090.16;5031041;28;20043;-39
2023/11/15 07:53:55;;;;;;;7.53;3.97;;;;;;;6.85;69.57;98128.31;5033684;28;20049;-38
2023/11/15 07:56:23;;;;;;;7.53;4.30;;;;;;;6.84;69.03;98130.94;5051311;28;20044;-37
2023/11/15 07:58:54;;;;;;;8.70;4.70;;;;;;;6.82;69.02;98138.75;5048720;28;20075;-37
2023/11/15 08:01:24;;;;;;;9.20;4.57;;;;;;;6.75;69.54;98130.44;5033817;28;20063;-36
2023/11/15 08:03:50;;;;;;;;;;;;;;;6.72;69.65;98135.75;5051658;28;20056;-37
2023/11/15 08:06:16;;;;;;;15.30;5.95;;;;;;;6.52;70.23;98142.69;5033397;28;19928;-37
2023/11/15 08:08:43;;;;;;;9.07;5.03;;;;;;;6.43;70.81;98141.34;5048571;28;20417;-37
2023/11/15 08:11:10;;;;;;;9.55;4.93;;;;;;;6.30;71.06;98141.00;5033936;28;20029;-36
2023/11/15 08:13:37;;;;;;;9.98;5.47;;;;;;;6.26;71.34;98144.63;5032999;28;20072;-37
2023/11/15 08:16:03;;;;;;;8.57;5.03;;;;;;;6.22;71.63;98142.22;5032525;28;20049;-37
2023/11/15 08:18:32;;;;;;;9.05;4.68;;;;;;;6.37;71.76;98144.16;5013522;28;20520;-37
2023/11/15 08:20:58;;;;;;;11.00;5.35;;;;;;;6.59;71.16;98149.25;5032765;28;20060;-38
2023/11/15 08:23:24;;;;;;;12.93;5.63;;;;;;;6.76;71.15;98145.03;5033625;28;20099;-37
2023/11/15 08:25:52;;;;;;;11.70;6.20;;;;;;;6.61;71.09;98091.47;5029244;28;20134;-38
2023/11/15 08:28:19;;;;;;;11.10;5.40;;;;;;;7.14;70.38;98150.25;5035646;28;20049;-37
2023/11/15 08:30:45;;;;;;;11.43;5.68;;;;;;;7.33;70.32;98153.66;5033781;28;20065;-37
2023/11/15 08:33:16;;;;;;;10.18;5.25;;;;;;;7.52;69.68;98151.94;5040788;28;20053;-37
2023/11/15 08:35:47;;;;;;;11.07;5.95;;;;;;;7.89;69.18;98155.38;5032766;28;20036;-37
2023/11/15 08:38:14;;;;;;;8.98;5.00;;;;;;;8.29;67.99;98151.66;5048215;28;20139;-38
2023/11/15 08:40:40;;;;;;;10.30;5.63;;;;;;;8.40;66.69;98105.41;5031103;28;20452;-37
2023/11/15 08:43:08;;;;;;;10.68;5.28;;;;;;;9.42;66.04;98152.66;5016008;28;20072;-37
2023/11/15 08:45:35;;;;;;;18.42;6.07;;;;;;;10.30;63.23;98152.13;5031972;28;20067;-38
2023/11/15 08:48:04;;;;;;;11.75;5.38;;;;;;;10.38;61.75;98147.28;5032111;28;20140;-37
2023/11/15 08:50:30;;;;;;;7.50;4.88;;;;;;;9.99;62.44;98151.22;5028671;28;20456;-37
2023/11/15 08:52:57;;;;;;;10.98;4.95;;;;;;;9.71;62.66;98159.72;5035935;28;20042;-38
2023/11/15 08:55:23;;;;;;;7.70;4.70;;;;;;;9.65;62.55;98154.00;5045075;28;20041;-37
2023/11/15 08:57:50;;;;;;;11.02;4.93;;;;;;;9.71;62.19;98156.28;5033373;28;20128;-38
2023/11/15 09:00:18;;;;;;;6.57;4.13;;;;;;;9.71;61.54;98151.94;5040828;28;20289;-38
2023/11/15 09:02:46;;;;;;;8.50;4.22;;;;;;;10.27;60.21;98153.09;5032045;28;20036;-37
2023/11/15 09:05:13;;;;;;;7.65;4.70;;;;;;;11.00;58.84;98151.38;5030856;28;20033;-37
2023/11/15 09:07:40;;;;;;;8.55;5.07;;;;;;;11.94;56.85;98148.06;5046339;28;20061;-37
2023/11/15 09:10:11;;;;;;;13.43;9.85;;;;;;;11.80;56.65;98133.34;5047510;28;20041;-37
2023/11/15 09:12:37;;;;;;;9.23;6.32;;;;;;;11.62;57.28;98162.28;5031936;28;20037;-38
2023/11/15 09:15:11;;;;;;;9.10;5.65;;;;;;;11.08;57.16;98132.72;5036327;28;20135;-38
2023/11/15 09:17:45;;;;;;;8.82;5.28;;;;;;;10.66;57.60;98133.53;5033006;28;20041;-40
2023/11/15 09:20:21;;;;;;;12.65;5.43;;;;;;;10.51;58.23;98162.09;5037444;28;20037;-36
2023/11/15 09:22:53;;;;;;;9.52;5.70;;;;;;;10.24;58.82;98155.91;5029476;28;20912;-37
2023/11/15 09:25:26;;;;;;;13.18;5.72;;;;;;;10.03;58.82;98170.06;5029773;28;20045;-37
2023/11/15 09:27:59;;;;;;;10.23;5.53;;;;;;;9.82;58.81;98163.47;5040766;28;20076;-38
2023/11/15 09:30:25;;;;;;;11.60;5.82;;;;;;;9.64;58.85;98162.72;5033231;28;20041;-37
2023/11/15 09:32:52;;;;;;;10.45;5.60;;;;;;;9.50;58.89;98167.81;5031035;28;20049;-38
2023/11/15 09:35:23;;;;;;;8.80;5.30;;;;;;;9.14;59.57;98123.97;5031399;28;20076;-37
2023/11/15 09:37:50;;;;;;;12.32;5.70;;;;;;;9.35;59.75;98165.16;5030413;28;20094;-38
2023/11/15 09:40:18;;;;;;;11.27;6.00;;;;;;;9.32;60.30;98156.69;5032990;28;20051;-37
2023/11/15 09:42:49;;;;;;;7.85;5.10;;;;;;;9.40;60.21;98166.66;5031938;28;20087;-38
2023/11/15 09:45:17;;;;;;;11.13;4.93;;;;;;;9.46;60.18;98174.94;5034452;28;20068;-37
2023/11/15 09:47:50;;;;;;;8.10;5.15;;;;;;;9.56;59.58;98175.28;5032416;28;20513;-37
2023/11/15 09:50:21;;;;;;;10.23;5.75;;;;;;;9.53;59.30;98175.44;5028978;28;20047;-36
2023/11/15 09:52:53;;;;;;;9.73;5.47;;;;;;;9.33;59.88;98192.91;5034377;28;20072;-36
2023/11/15 09:55:22;;;;;;;10.10;5.18;;;;;;;9.01;60.00;98195.50;5046397;28;20091;-37
2023/11/15 09:57:51;;;;;;;7.55;4.63;;;;;;;8.67;60.27;98171.34;5032139;28;20048;-38
2023/11/15 10:00:20;;;;;;;9.32;5.50;;;;;;;8.78;60.72;98197.53;5033090;28;20067;-38
2023/11/15 10:02:47;;;;;;;;;;;;;;;8.66;60.44;98176.59;5037567;28;20065;-38
2023/11/15 10:05:18;;;;;;;11.32;4.55;;;;;;;8.52;60.20;98190.25;5034528;28;19971;-39
2023/11/15 10:07:47;;;;;;;8.88;4.45;;;;;;;8.51;59.87;98193.75;5033501;28;20526;-37
2023/11/15 10:10:18;;;;;;;;;;;;;;;8.60;59.76;98193.28;5035699;28;20037;-46
2023/11/15 10:12:45;;;;;;;7.40;4.18;;;;;;;8.68;59.47;98203.28;5044649;28;19916;-37
2023/11/15 10:15:13;;;;;;;8.27;3.88;;;;;;;8.67;58.13;98199.00;5036439;28;20155;-36
2023/11/15 10:17:40;;;;;;;7.00;3.80;;;;;;;8.72;57.49;98187.47;5033710;28;20073;-37
2023/11/15 10:20:20;;;;;;;6.65;3.75;;;;;;;9.06;57.39;98191.75;5051102;28;20779;-37
2023/11/15 10:22:47;;;;;;;8.40;4.78;;;;;;;9.24;57.26;98170.06;5036945;28;20037;-36
2023/11/15 10:25:14;;;;;;;10.40;4.72;;;;;;;9.55;56.73;98171.84;5014172;28;20424;-39
2023/11/15 10:27:41;;;;;;;8.15;4.18;;;;;;;9.72;57.59;98181.31;5033679;28;20064;-37
2023/11/15 10:30:12;;;;;;;7.65;4.50;;;;;;;9.70;57.12;98180.53;5037465;28;20037;-37
2023/11/15 10:32:40;;;;;;;10.52;4.95;;;;;;;9.86;58.08;98177.94;5033158;28;20428;-38
2023/11/15 10:35:08;;;;;;;10.40;4.82;;;;;;;10.32;57.24;98182.25;5018973;28;20041;-38
2023/11/15 10:37:47;;;;;;;8.15;4.50;;;;;;;10.19;57.12;98189.09;5032976;28;20424;-38
2023/11/15 10:40:13;;;;;;;10.97;4.53;;;;;;;10.02;56.75;98177.00;5041651;28;20037;-38
2023/11/15 10:42:40;;;;;;;7.07;4.45;;;;;;;9.87;57.08;98177.03;5031084;28;20853;-39
2023/11/15 10:45:11;;;;;;;7.00;3.55;;;;;;;9.72;56.70;98187.34;5034364;28;20076;-38
2023/11/15 10:47:40;;;;;;;7.75;4.20;;;;;;;9.46;57.06;98190.50;5034680;28;20160;-38
2023/11/15 10:50:13;;;;;;;8.13;3.90;;;;;;;9.53;57.35;98197.03;5054180;28;20191;-38
2023/11/15 10:52:39;;;;;;;7.20;3.78;;;;;;;9.38;57.13;98171.91;5036885;28;20053;-37
2023/11/15 10:55:05;;;;;;;14.35;4.22;;;;;;;9.41;57.07;98199.47;5035509;28;20628;-38
2023/11/15 10:57:32;;;;;;;10.45;4.47;;;;;;;9.34;56.78;98198.94;5050534;28;20064;-38
2023/11/15 11:00:05;;;;;;;12.75;4.82;;;;;;;9.15;57.47;98201.66;5051680;28;20048;-38
2023/11/15 11:02:33;;;;;;;9.68;4.30;;;;;;;8.90;57.44;98176.16;5032614;28;20084;-38
2023/11/15 11:05:00;;;;;;;8.18;4.30;;;;;;;9.03;57.62;98201.47;5032146;28;20064;-39
2023/11/15 11:07:31;;;;;;;7.47;4.55;;;;;;;8.90;57.49;98199.50;5034417;28;20155;-39
2023/11/15 11:10:34;;;;;;;6.80;4.05;;;;;;;9.43;56.63;98198.44;5054671;28;20047;-39
2023/11/15 11:13:00;;;;;;;7.75;3.67;;;;;;;11.00;53.88;98204.22;5051539;28;20044;-40
2023/11/15 11:15:31;;;;;;;10.15;4.07;;;;;;;11.04;53.08;98197.09;5036722;28;20164;-41
2023/11/15 11:18:03;;;;;;;10.57;4.05;;;;;;;10.77;53.53;98196.97;5063762;28;20040;-39
2023/11/15 11:20:34;;;;;;;10.95;4.10;;;;;;;10.88;53.62;98197.16;5014757;28;20524;-38
2023/11/15 11:23:22;;;;;;;17.90;3.95;;;;;;;10.37;54.24;98207.97;5046262;28;20439;-38
2023/11/15 11:25:51;;;;;;;8.55;3.83;;;;;;;9.76;54.50;98200.97;5055813;28;20041;-38
2023/11/15 11:28:20;;;;;;;8.18;4.13;;;;;;;9.36;54.58;98207.47;5056078;28;20520;-38
2023/11/15 11:31:19;;;;;;;8.60;4.22;;;;;;;8.93;55.16;98204.53;5059189;28;20131;-38
2023/11/15 11:34:12;;;;;;;11.52;4.03;;;;;;;9.40;55.11;98209.00;5056735;28;20318;-37
2023/11/15 11:36:45;;;;;;;5.63;3.70;;;;;;;9.68;54.06;98210.94;5027288;28;20052;-38
2023/11/15 11:39:12;;;;;;;7.00;4.03;;;;;;;9.62;54.20;98213.88;5035628;28;20055;-37
2023/11/15 11:41:38;;;;;;;9.50;4.30;;;;;;;9.23;54.29;98209.88;5039294;28;20462;-38